createdAt,value
2023-03-02T00:01:57.327Z,136.10
2023-03-02T00:04:42.691Z,142.30
2023-03-02T00:07:14.628Z,128.90
2023-03-02T00:09:43.578Z,145.50
2023-03-02T00:12:11.923Z,144.40
2023-03-02T00:14:38.769Z,163.00
2023-03-02T00:17:08.308Z,158.60
2023-03-02T00:19:36.695Z,167.60
2023-03-02T00:22:04.688Z,170.90
2023-03-02T00:24:31.885Z,157.10
2023-03-02T00:26:58.936Z,149.80
2023-03-02T00:29:25.983Z,153.40
2023-03-02T00:31:53.080Z,168.40
2023-03-02T00:34:30.260Z,176.00
2023-03-02T00:36:57.328Z,184.80
2023-03-02T00:39:24.924Z,180.60
2023-03-02T00:41:52.042Z,171.60
2023-03-02T00:44:19.408Z,177.80
2023-03-02T00:46:46.515Z,177.00
2023-03-02T00:49:13.890Z,174.70
2023-03-02T00:51:41.165Z,159.80
2023-03-02T00:54:08.242Z,170.80
2023-03-02T00:56:35.328Z,173.20
2023-03-02T00:59:07.321Z,155.50
2023-03-02T01:01:34.446Z,170.40
2023-03-02T01:04:01.486Z,172.00
2023-03-02T01:06:28.795Z,168.50
2023-03-02T01:08:55.828Z,158.70
2023-03-02T01:11:23.018Z,171.80
2023-03-02T01:13:51.028Z,179.50
2023-03-02T01:16:18.787Z,174.00
2023-03-02T01:18:46.135Z,170.10
2023-03-02T01:21:15.858Z,164.20
2023-03-02T01:23:43.102Z,187.70
2023-03-02T01:26:10.528Z,182.50
2023-03-02T01:28:37.818Z,161.80
2023-03-02T01:31:05.624Z,174.40
2023-03-02T01:33:33.492Z,174.70
2023-03-02T01:36:00.992Z,168.60
2023-03-02T01:38:28.757Z,167.00
2023-03-02T01:40:55.736Z,197.10
2023-03-02T01:43:22.941Z,194.40
2023-03-02T01:46:05.127Z,184.10
2023-03-02T01:48:45.418Z,175.50
2023-03-02T01:51:16.306Z,204.10
2023-03-02T01:53:47.508Z,198.70
2023-03-02T01:56:21.652Z,202.70
2023-03-02T01:58:53.409Z,202.30
2023-03-02T02:01:22.023Z,191.80
2023-03-02T02:03:50.981Z,208.10
2023-03-02T02:06:43.262Z,194.90
2023-03-02T02:09:14.781Z,183.00
2023-03-02T02:11:43.976Z,171.90
2023-03-02T02:14:10.986Z,182.00
2023-03-02T02:16:39.530Z,172.00
2023-03-02T02:19:31.583Z,186.40
2023-03-02T02:21:58.838Z,184.10
2023-03-02T02:24:34.131Z,170.00
2023-03-02T02:27:01.969Z,187.90
2023-03-02T02:29:35.570Z,177.90
2023-03-02T02:32:11.698Z,177.90
2023-03-02T02:34:40.945Z,182.10
2023-03-02T02:37:15.013Z,177.40
2023-03-02T02:39:46.706Z,196.00
2023-03-02T02:42:36.610Z,191.70
2023-03-02T02:45:08.072Z,177.10
2023-03-02T02:47:35.436Z,182.80
2023-03-02T02:50:02.848Z,183.90
2023-03-02T02:52:30.289Z,180.30
2023-03-02T02:54:59.109Z,178.40
2023-03-02T02:57:29.970Z,183.20
2023-03-02T03:00:01.311Z,183.20
2023-03-02T03:02:33.270Z,195.40
2023-03-02T03:05:04.312Z,206.10
2023-03-02T03:10:18.853Z,177.20
2023-03-02T03:12:47.740Z,193.70
2023-03-02T03:15:16.223Z,191.30
2023-03-02T03:17:53.844Z,187.30
2023-03-02T03:20:22.615Z,183.30
2023-03-02T03:22:49.879Z,183.60
2023-03-02T03:25:17.243Z,150.70
2023-03-02T03:27:44.490Z,157.60
2023-03-02T03:30:13.973Z,155.80
2023-03-02T03:32:41.838Z,155.90
2023-03-02T03:35:11.888Z,166.90
2023-03-02T03:37:41.073Z,165.90
2023-03-02T03:40:10.294Z,171.10
2023-03-02T03:42:40.451Z,166.60
2023-03-02T03:45:09.134Z,165.20
2023-03-02T03:47:36.799Z,162.50
2023-03-02T03:50:04.515Z,166.30
2023-03-02T03:52:32.075Z,156.10
2023-03-02T03:55:00.676Z,154.00
2023-03-02T03:57:29.278Z,160.50
2023-03-02T03:59:56.248Z,151.60
2023-03-02T04:02:23.589Z,154.80
2023-03-02T04:04:50.916Z,158.30
2023-03-02T04:07:18.368Z,148.00
2023-03-02T04:09:45.429Z,146.50
2023-03-02T04:12:12.745Z,165.50
2023-03-02T04:14:39.875Z,181.80
2023-03-02T04:17:07.491Z,192.90
2023-03-02T04:19:35.898Z,189.00
2023-03-02T04:22:04.758Z,197.10
2023-03-02T04:24:32.419Z,187.60
2023-03-02T04:26:59.879Z,192.40
2023-03-02T04:29:32.921Z,236.50
2023-03-02T04:32:06.644Z,212.90
2023-03-02T04:34:33.860Z,233.40
2023-03-02T04:37:01.467Z,199.80
2023-03-02T04:39:28.418Z,176.10
2023-03-02T04:41:55.738Z,180.40
2023-03-02T04:44:23.056Z,164.00
2023-03-02T04:46:50.219Z,180.20
2023-03-02T04:49:19.480Z,189.30
2023-03-02T04:51:48.830Z,159.90
2023-03-02T04:54:25.457Z,166.20
2023-03-02T04:56:53.721Z,161.20
2023-03-02T04:59:30.945Z,171.90
2023-03-02T05:02:05.494Z,202.90
2023-03-02T05:04:33.245Z,186.80
2023-03-02T05:07:00.731Z,195.60
2023-03-02T05:09:29.721Z,207.20
2023-03-02T05:11:59.369Z,221.50
2023-03-02T05:14:27.396Z,226.80
2023-03-02T05:16:54.648Z,210.10
2023-03-02T05:19:21.802Z,207.60
2023-03-02T05:21:49.169Z,214.50
2023-03-02T05:24:16.185Z,269.00
2023-03-02T05:26:43.133Z,249.10
2023-03-02T05:29:09.985Z,270.10
2023-03-02T05:31:43.359Z,235.40
2023-03-02T05:34:15.542Z,238.10
2023-03-02T05:36:43.822Z,220.20
2023-03-02T05:39:11.148Z,209.40
2023-03-02T05:41:38.730Z,227.30
2023-03-02T05:44:09.648Z,215.20
2023-03-02T05:46:37.204Z,211.70
2023-03-02T05:49:04.566Z,171.80
2023-03-02T05:51:31.530Z,147.20
2023-03-02T05:53:58.556Z,162.80
2023-03-02T05:56:25.732Z,193.80
2023-03-02T05:58:52.526Z,187.60
2023-03-02T06:01:19.884Z,193.90
2023-03-02T06:03:47.369Z,218.20
2023-03-02T06:06:14.540Z,246.30
2023-03-02T06:08:42.593Z,260.60
2023-03-02T06:11:10.213Z,253.40
2023-03-02T06:13:37.775Z,244.20
2023-03-02T06:16:05.457Z,226.50
2023-03-02T06:18:32.900Z,222.70
2023-03-02T06:21:00.541Z,221.30
2023-03-02T06:23:27.806Z,182.80
2023-03-02T06:25:55.158Z,197.80
2023-03-02T06:28:22.298Z,209.40
2023-03-02T06:30:50.056Z,222.90
2023-03-02T06:33:18.368Z,211.40
2023-03-02T06:35:46.506Z,224.60
2023-03-02T06:38:13.853Z,212.30
2023-03-02T06:40:41.161Z,236.90
2023-03-02T06:43:08.148Z,205.80
2023-03-02T06:45:35.642Z,213.10
2023-03-02T06:48:02.785Z,214.70
2023-03-02T06:50:29.726Z,181.90
2023-03-02T06:52:57.321Z,153.30
2023-03-02T06:55:24.841Z,175.70
2023-03-02T06:57:52.444Z,166.30
2023-03-02T07:00:26.423Z,160.10
2023-03-02T07:02:54.050Z,124.90
2023-03-02T07:05:22.930Z,177.50
2023-03-02T07:07:50.279Z,191.60
2023-03-02T07:10:17.566Z,177.50
2023-03-02T07:12:45.238Z,166.20
2023-03-02T07:15:14.572Z,117.90
2023-03-02T07:17:43.805Z,182.40
2023-03-02T07:20:13.011Z,142.70
2023-03-02T07:22:40.804Z,112.30
2023-03-02T07:25:20.896Z,130.90
2023-03-02T07:27:50.401Z,134.70
2023-03-02T07:30:31.105Z,107.20
2023-03-02T07:32:59.858Z,124.30
2023-03-02T07:35:35.319Z,146.30
2023-03-02T07:38:03.494Z,156.60
2023-03-02T07:40:37.421Z,109.30
2023-03-02T07:43:07.063Z,120.00
2023-03-02T07:45:34.534Z,86.90
2023-03-02T07:48:03.089Z,93.60
2023-03-02T07:50:32.192Z,95.80
2023-03-02T07:53:00.752Z,92.30
2023-03-02T07:55:28.685Z,94.80
2023-03-02T07:57:55.687Z,94.30
2023-03-02T08:00:23.007Z,118.10
2023-03-02T08:02:50.113Z,97.40
2023-03-02T08:05:17.434Z,75.40
2023-03-02T08:07:47.330Z,76.10
2023-03-02T08:10:14.393Z,79.20
2023-03-02T08:12:43.247Z,64.80
2023-03-02T08:15:11.417Z,70.80
2023-03-02T08:17:38.705Z,78.10
2023-03-02T08:20:07.004Z,62.10
2023-03-02T08:22:34.366Z,77.70
2023-03-02T08:25:01.588Z,62.80
2023-03-02T08:27:28.379Z,68.10
2023-03-02T08:29:55.811Z,62.70
2023-03-02T08:32:22.787Z,98.90
2023-03-02T08:34:52.211Z,84.00
2023-03-02T08:37:20.249Z,73.90
2023-03-02T08:39:47.486Z,73.90
2023-03-02T08:42:14.846Z,59.00
2023-03-02T08:44:41.814Z,54.60
2023-03-02T08:47:09.003Z,45.40
2023-03-02T08:49:38.217Z,46.90
2023-03-02T08:52:05.733Z,49.90
2023-03-02T08:54:34.945Z,46.70
2023-03-02T08:57:03.008Z,45.40
2023-03-02T08:59:30.285Z,46.40
2023-03-02T09:01:59.722Z,34.90
2023-03-02T09:04:26.762Z,38.40
2023-03-02T09:06:53.803Z,40.20
2023-03-02T09:09:20.840Z,43.00
2023-03-02T09:11:48.239Z,45.80
2023-03-02T09:14:15.644Z,33.20
2023-03-02T09:16:42.760Z,32.60
2023-03-02T09:19:12.532Z,34.80
2023-03-02T09:21:40.125Z,34.30
2023-03-02T09:24:07.329Z,27.40
2023-03-02T09:26:35.484Z,28.00
2023-03-02T09:29:02.469Z,30.30
2023-03-02T09:31:30.502Z,32.00
2023-03-02T09:33:57.791Z,27.60
2023-03-02T09:36:26.944Z,28.60
2023-03-02T09:38:54.200Z,25.00
2023-03-02T09:41:21.093Z,31.00
2023-03-02T09:43:50.983Z,28.30
2023-03-02T09:46:34.416Z,23.20
2023-03-02T09:49:39.322Z,27.00
2023-03-02T09:52:35.084Z,25.00
2023-03-02T09:55:24.242Z,23.80
2023-03-02T09:57:52.212Z,23.60
2023-03-02T10:00:28.537Z,29.90
2023-03-02T10:03:16.187Z,29.80
2023-03-02T10:05:48.785Z,24.30
2023-03-02T10:08:21.160Z,22.80
2023-03-02T10:10:59.731Z,20.40
2023-03-02T10:14:08.697Z,19.30
2023-03-02T10:16:52.844Z,23.20
2023-03-02T10:19:32.756Z,25.70
2023-03-02T10:22:08.920Z,19.10
2023-03-02T10:24:47.332Z,24.50
2023-03-02T10:27:27.120Z,17.60
2023-03-02T10:30:06.758Z,35.20
2023-03-02T10:32:42.140Z,27.80
2023-03-02T10:35:21.256Z,18.10
2023-03-02T10:37:49.428Z,16.70
2023-03-02T10:40:51.113Z,21.00
2023-03-02T10:43:31.152Z,22.70
2023-03-02T10:46:03.668Z,18.90
2023-03-02T10:48:32.783Z,25.70
2023-03-02T10:51:01.514Z,15.10
2023-03-02T10:53:31.132Z,14.60
2023-03-02T10:56:00.676Z,13.60
2023-03-02T10:58:33.009Z,12.80
2023-03-02T11:01:06.077Z,18.00
2023-03-02T11:03:34.622Z,13.80
2023-03-02T11:06:18.119Z,26.00
2023-03-02T11:08:45.031Z,15.30
2023-03-02T11:11:23.205Z,14.90
2023-03-02T11:13:51.221Z,13.90
2023-03-02T11:16:18.527Z,19.00
2023-03-02T11:19:17.720Z,15.70
2023-03-02T11:21:54.044Z,15.80
2023-03-02T11:24:37.322Z,13.60
2023-03-02T11:27:23.037Z,14.10
2023-03-02T11:30:17.320Z,12.90
2023-03-02T11:33:02.065Z,11.80
2023-03-02T11:35:37.400Z,12.20
2023-03-02T11:38:19.732Z,17.10
2023-03-02T11:40:55.662Z,16.20
2023-03-02T11:43:23.152Z,14.00
2023-03-02T11:46:10.863Z,16.10
2023-03-02T11:48:45.331Z,15.50
2023-03-02T11:51:18.284Z,18.50
2023-03-02T11:53:58.248Z,17.90
2023-03-02T11:56:27.176Z,13.00
2023-03-02T11:58:58.281Z,13.70
2023-03-02T12:01:29.405Z,13.60
2023-03-02T12:04:08.397Z,13.80
2023-03-02T12:06:39.082Z,15.10
2023-03-02T12:09:37.444Z,11.20
2023-03-02T12:12:32.109Z,17.30
2023-03-02T12:14:59.144Z,14.60
2023-03-02T12:17:25.983Z,13.90
2023-03-02T12:20:27.054Z,12.60
2023-03-02T12:22:55.243Z,12.00
2023-03-02T12:25:22.150Z,10.80
2023-03-02T12:27:52.052Z,14.10
2023-03-02T12:30:24.023Z,13.00
2023-03-02T12:33:18.818Z,14.50
2023-03-02T12:35:47.749Z,21.40
2023-03-02T12:38:35.558Z,13.40
2023-03-02T12:41:35.829Z,11.50
2023-03-02T12:44:34.948Z,13.70
2023-03-02T12:47:03.784Z,15.00
2023-03-02T12:50:20.958Z,12.00
2023-03-02T12:52:58.855Z,11.60
2023-03-02T12:55:26.205Z,11.60
2023-03-02T12:57:58.687Z,11.80
2023-03-02T13:00:30.448Z,35.80
2023-03-02T13:02:58.890Z,20.50
2023-03-02T13:05:32.073Z,18.20
2023-03-02T13:08:02.003Z,16.10
2023-03-02T13:10:37.502Z,15.90
2023-03-02T13:13:19.519Z,17.30
2023-03-02T13:15:58.204Z,16.70
2023-03-02T13:18:28.466Z,15.20
2023-03-02T13:20:56.231Z,15.60
2023-03-02T13:23:23.733Z,13.70
2023-03-02T13:25:57.516Z,15.70
2023-03-02T13:28:40.450Z,15.70
2023-03-02T13:31:20.741Z,16.90
2023-03-02T13:33:50.595Z,13.70
2023-03-02T13:36:31.283Z,15.90
2023-03-02T13:39:00.881Z,15.70
2023-03-02T13:41:36.932Z,16.00
2023-03-02T13:44:31.639Z,15.20
2023-03-02T13:46:59.832Z,14.00
2023-03-02T13:49:35.920Z,16.30
2023-03-02T13:52:22.687Z,28.00
2023-03-02T13:54:50.410Z,16.60
2023-03-02T13:57:25.478Z,12.20
2023-03-02T13:59:52.795Z,13.70
2023-03-02T14:02:29.021Z,17.70
2023-03-02T14:04:57.012Z,16.60
2023-03-02T14:07:24.278Z,14.90
2023-03-02T14:09:51.483Z,14.50
2023-03-02T14:12:25.644Z,15.20
2023-03-02T14:14:56.193Z,27.30
2023-03-02T14:17:25.562Z,22.40
2023-03-02T14:19:53.562Z,18.20
2023-03-02T14:22:22.137Z,16.90
2023-03-02T14:24:49.320Z,16.10
2023-03-02T14:27:18.297Z,16.50
2023-03-02T14:29:46.953Z,19.00
2023-03-02T14:32:15.706Z,28.50
2023-03-02T14:34:45.473Z,47.70
2023-03-02T14:37:22.889Z,18.20
2023-03-02T14:39:55.520Z,19.00
2023-03-02T14:42:24.607Z,17.90
2023-03-02T14:44:53.342Z,22.80
2023-03-02T14:47:22.557Z,20.80
2023-03-02T14:49:51.347Z,16.00
2023-03-02T14:52:28.273Z,18.80
2023-03-02T14:55:01.479Z,16.20
2023-03-02T14:57:34.667Z,21.10
2023-03-02T15:00:04.236Z,15.00
2023-03-02T15:02:33.992Z,14.70
2023-03-02T15:05:01.297Z,16.60
2023-03-02T15:07:29.240Z,19.10
2023-03-02T15:09:58.682Z,20.20
2023-03-02T15:12:28.241Z,19.60
2023-03-02T15:14:56.613Z,21.80
2023-03-02T15:17:25.399Z,19.60
2023-03-02T15:19:53.478Z,24.60
2023-03-02T15:22:22.063Z,94.60
2023-03-02T15:24:51.688Z,99.00
2023-03-02T15:27:20.982Z,95.40
2023-03-02T15:29:48.556Z,68.10
2023-03-02T15:32:16.687Z,81.60
2023-03-02T15:34:44.395Z,24.20
2023-03-02T15:37:12.845Z,25.10
2023-03-02T15:39:40.589Z,106.20
2023-03-02T15:42:07.738Z,55.30
2023-03-02T15:44:34.947Z,97.00
2023-03-02T15:47:02.082Z,158.60
2023-03-02T15:49:29.685Z,141.40
2023-03-02T15:51:58.729Z,195.00
2023-03-02T15:54:27.746Z,356.80
2023-03-02T15:56:54.942Z,122.70
2023-03-02T15:59:24.408Z,419.90
2023-03-02T16:01:51.585Z,335.00
2023-03-02T16:04:18.809Z,628.70
2023-03-02T16:06:58.367Z,437.70
2023-03-02T16:09:52.793Z,251.30
2023-03-02T16:12:23.821Z,348.70
2023-03-02T16:17:21.145Z,233.60
2023-03-02T16:19:48.221Z,272.10
2023-03-02T16:22:15.661Z,348.10
2023-03-02T16:24:43.223Z,210.90
2023-03-02T16:27:10.309Z,177.80
2023-03-02T16:29:38.021Z,192.80
2023-03-02T16:32:06.693Z,153.60
2023-03-02T16:34:33.822Z,136.10
2023-03-02T16:37:00.872Z,132.10
2023-03-02T16:39:28.035Z,151.60
2023-03-02T16:41:54.982Z,134.50
2023-03-02T16:44:23.432Z,166.30
2023-03-02T16:46:50.397Z,128.70
2023-03-02T16:49:17.854Z,140.50
2023-03-02T16:51:44.905Z,135.60
2023-03-02T16:54:16.465Z,98.90
2023-03-02T16:56:45.544Z,83.30
2023-03-02T16:59:12.627Z,76.40
2023-03-02T17:01:39.685Z,62.20
2023-03-02T17:04:07.273Z,70.30
2023-03-02T17:06:34.380Z,73.00
2023-03-02T17:09:01.606Z,76.30
2023-03-02T17:11:28.781Z,67.40
2023-03-02T17:13:56.142Z,80.00
2023-03-02T17:16:23.582Z,74.80
2023-03-02T17:18:50.724Z,75.80
2023-03-02T17:21:18.946Z,74.90
2023-03-02T17:23:59.823Z,82.40
2023-03-02T17:26:26.937Z,82.10
2023-03-02T17:28:54.022Z,79.00
2023-03-02T17:31:30.096Z,74.70
2023-03-02T17:33:57.443Z,74.80
2023-03-02T17:36:24.357Z,75.90
2023-03-02T17:38:52.427Z,68.50
2023-03-02T17:41:19.294Z,80.30
2023-03-02T17:43:46.506Z,79.60
2023-03-02T17:46:15.611Z,79.00
2023-03-02T17:48:43.664Z,85.90
2023-03-02T17:51:12.048Z,85.80
2023-03-02T17:53:39.143Z,86.30
2023-03-02T17:56:06.874Z,94.90
2023-03-02T17:58:44.385Z,99.30
2023-03-02T18:01:13.648Z,92.90
2023-03-02T18:03:41.101Z,90.10
2023-03-02T18:06:08.183Z,126.80
2023-03-02T18:08:35.145Z,106.50
2023-03-02T18:11:02.621Z,195.80
2023-03-02T18:13:29.501Z,134.20
2023-03-02T18:15:56.469Z,120.50
2023-03-02T18:18:24.320Z,136.20
2023-03-02T18:20:51.305Z,121.30
2023-03-02T18:23:19.804Z,124.90
2023-03-02T18:25:46.824Z,121.50
2023-03-02T18:28:14.192Z,119.20
2023-03-02T18:30:41.790Z,114.20
2023-03-02T18:33:09.161Z,133.70
2023-03-02T18:35:45.153Z,117.20
2023-03-02T18:38:12.188Z,103.90
2023-03-02T18:40:39.861Z,109.20
2023-03-02T18:43:06.944Z,96.90
2023-03-02T18:45:34.740Z,98.30
2023-03-02T18:48:02.479Z,110.90
2023-03-02T18:50:30.923Z,106.30
2023-03-02T18:52:58.044Z,115.90
2023-03-02T18:55:25.731Z,101.40
2023-03-02T18:57:55.665Z,100.50
2023-03-02T19:00:27.966Z,91.50
2023-03-02T19:02:56.681Z,87.20
2023-03-02T19:05:27.345Z,84.00
2023-03-02T19:07:55.089Z,82.70
2023-03-02T19:10:22.504Z,86.30
2023-03-02T19:12:49.921Z,77.80
2023-03-02T19:15:17.306Z,83.90
2023-03-02T19:17:44.935Z,97.80
2023-03-02T19:20:15.669Z,86.60
2023-03-02T19:22:43.117Z,93.50
2023-03-02T19:25:11.296Z,91.90
2023-03-02T19:27:38.533Z,102.00
2023-03-02T19:30:07.312Z,112.10
2023-03-02T19:32:34.995Z,110.90
2023-03-02T19:35:02.996Z,122.70
2023-03-02T19:37:30.308Z,105.40
2023-03-02T19:39:57.368Z,110.50
2023-03-02T19:42:24.317Z,121.40
2023-03-02T19:44:51.386Z,121.80
2023-03-02T19:47:18.382Z,117.90
2023-03-02T19:49:45.475Z,121.80
2023-03-02T19:52:12.599Z,109.20
2023-03-02T19:54:39.620Z,123.80
2023-03-02T19:57:08.304Z,143.80
2023-03-02T19:59:37.097Z,125.60
2023-03-02T20:02:04.193Z,113.50
2023-03-02T20:04:31.076Z,122.20
2023-03-02T20:06:58.425Z,116.40
2023-03-02T20:09:25.675Z,125.30
2023-03-02T20:11:52.925Z,121.00
2023-03-02T20:14:32.889Z,119.40
2023-03-02T20:17:02.205Z,119.50
2023-03-02T20:19:29.348Z,111.40
2023-03-02T20:21:56.420Z,117.70
2023-03-02T20:24:23.621Z,130.50
2023-03-02T20:26:50.864Z,125.40
2023-03-02T20:29:18.995Z,146.30
2023-03-02T20:31:45.960Z,186.20
2023-03-02T20:34:16.197Z,217.00
2023-03-02T20:36:44.102Z,247.80
2023-03-02T20:39:16.354Z,195.40
2023-03-02T20:41:44.514Z,200.40
2023-03-02T20:44:14.568Z,303.00
2023-03-02T20:46:46.420Z,226.90
2023-03-02T20:49:16.110Z,200.70
2023-03-02T20:51:49.474Z,178.10
2023-03-02T20:54:17.568Z,168.70
2023-03-02T20:56:45.142Z,203.20
2023-03-02T20:59:14.206Z,239.60
2023-03-02T21:01:42.608Z,247.60
2023-03-02T21:04:10.636Z,241.60
2023-03-02T21:06:38.110Z,223.90
2023-03-02T21:09:08.258Z,228.20
2023-03-02T21:11:35.968Z,233.90
2023-03-02T21:14:03.463Z,214.70
2023-03-02T21:16:36.258Z,200.60
2023-03-02T21:19:10.017Z,180.50
2023-03-02T21:21:42.046Z,212.10
2023-03-02T21:24:17.078Z,176.20
2023-03-02T21:26:49.212Z,138.80
2023-03-02T21:29:18.050Z,157.60
2023-03-02T21:31:45.461Z,192.90
2023-03-02T21:34:13.642Z,178.80
2023-03-02T21:36:40.984Z,164.70
2023-03-02T21:39:09.620Z,198.20
2023-03-02T21:41:36.995Z,196.20
2023-03-02T21:44:06.057Z,176.60
2023-03-02T21:46:36.110Z,179.80
2023-03-02T21:49:08.155Z,193.60
2023-03-02T21:51:44.048Z,181.10
2023-03-02T21:54:10.959Z,173.50
2023-03-02T21:56:38.079Z,184.70
2023-03-02T21:59:05.636Z,183.90
2023-03-02T22:01:35.889Z,181.40
2023-03-02T22:04:03.005Z,200.40
2023-03-02T22:06:32.814Z,204.20
2023-03-02T22:08:59.856Z,207.50
2023-03-02T22:11:33.621Z,155.20
2023-03-02T22:14:17.750Z,153.70
2023-03-02T22:16:48.203Z,147.20
2023-03-02T22:19:25.874Z,161.30
2023-03-02T22:21:55.377Z,151.70
2023-03-02T22:24:26.816Z,146.00
2023-03-02T22:27:02.352Z,167.30
2023-03-02T22:29:42.662Z,173.50
2023-03-02T22:32:37.064Z,174.80
2023-03-02T22:35:26.060Z,179.00
2023-03-02T22:38:02.425Z,187.70
2023-03-02T22:40:32.281Z,177.70
2023-03-02T22:43:27.398Z,190.80
2023-03-02T22:45:59.788Z,231.20
2023-03-02T22:48:29.560Z,226.30
2023-03-02T22:50:56.678Z,218.60
2023-03-02T22:53:32.763Z,227.20
2023-03-02T22:56:02.205Z,208.50
2023-03-02T22:58:44.752Z,228.60
2023-03-02T23:01:23.630Z,241.70
2023-03-02T23:03:53.952Z,238.20
2023-03-02T23:06:27.916Z,203.20
2023-03-02T23:08:58.759Z,178.50
2023-03-02T23:11:27.064Z,176.80
2023-03-02T23:13:55.564Z,198.90
2023-03-02T23:16:27.902Z,194.70
2023-03-02T23:18:59.717Z,190.30
2023-03-02T23:21:47.902Z,167.60
2023-03-02T23:24:15.470Z,185.30
2023-03-02T23:26:43.424Z,186.40
2023-03-02T23:29:10.287Z,181.10
2023-03-02T23:31:38.475Z,169.50
2023-03-02T23:34:06.272Z,154.70
2023-03-02T23:36:33.240Z,156.20
2023-03-02T23:39:00.507Z,158.40
2023-03-02T23:41:27.655Z,158.30
2023-03-02T23:43:55.075Z,161.10
2023-03-02T23:46:22.072Z,163.10
2023-03-02T23:48:49.470Z,163.70
2023-03-02T23:51:16.588Z,164.50
2023-03-02T23:53:44.982Z,153.20
2023-03-02T23:56:11.955Z,159.70
2023-03-02T23:58:39.384Z,152.40
